LIPELIBC

Guest
Details From LIPE - BOLOGNA
To LIBC - CROTONE
Flight Number -
Tags generated
Created
Modified
Stats Distance 426 nm / 789 km
Max Altitude 35,000 ft / 10,668 m
Waypoints 9
Social Downloads 2
Likes 0
Share VATSIM

Download

Looking for another format? Having issues loading an existing format? Contact us
Advertisement - Login to hide

Notes

Basic altitude profile: - Ascent Rate: 2500ft/min - Ascent Speed: 250kts - Cruise Altitude: 35000ft - Cruise Speed: 420kts - Descent Rate: 1500ft/min - Descent Speed: 250kts Options: - Use NATs: yes - Use PACOTS: yes - Use low airways: no - Use high airways: yes

Route

LIPE LEONN UM872 NORKI UZ905 EMILY UZ904 MATED LIBC

ID Type Via Altitude Latitude Longitude Leg Dist Tot Dist Heading (true) Name
O LIPE APT - 0 ft / 0 m 44.53545˚ 11.28866˚ - 0 nm - BOLOGNA
LEONN FIX - 35,000 ft / 10,668 m 43.29500˚ 13.03667˚ 106 nm 106 nm 134° / 135° -
NORKI FIX UM872 (AWY-HI) 35,000 ft / 10,668 m 43.07972˚ 13.32861˚ 18 nm 124 nm 135° / 135° -
EMILY FIX UZ905 (AWY-HI) 35,000 ft / 10,668 m 42.16806˚ 14.13361˚ 65 nm 189 nm 147° / 147° -
ERMOT FIX UZ904 (AWY-HI) 35,000 ft / 10,668 m 41.68306˚ 14.80722˚ 41 nm 231 nm 134° / 134° -
VEBOX FIX UZ904 (AWY-HI) 31,900 ft / 9,723 m 41.15000˚ 15.52972˚ 45 nm 277 nm 134° / 135° -
DOGUS FIX UZ904 (AWY-HI) 29,500 ft / 8,992 m 41.02000˚ 15.70333˚ 11 nm 288 nm 135° / 135° -
MATED FIX UZ904 (AWY-HI) 21,600 ft / 6,584 m 40.61056˚ 16.16833˚ 32 nm 320 nm 139° / 139° -
O LIBC APT - 0 ft / 0 m 38.99722˚ 17.08017˚ 105 nm 426 nm 156° / 157° CROTONE

Altitude Profile

Advertisement - Login to hide

Weather


0- 5 10 15 20 25 30 35+ Temperature / ° C

Clouds and Precipitation
Forecast for 2017-12-13 18:00 UTC. Updated 2 hours ago

Ground ~20,000 ft ~40,000 ft Winds

LIPE

Details ICAO LIPE (BLQ)
Name BOLOGNA
Region Italy
Timezone Europe/Rome (UTC+1.0)
Stats Elevation 123 ft / 37 m (AMSL)
Location 44.535446° 11.288662°
Runways 1
Magnetic Variation 2.918° E

METAR

LIPE 131650Z VRB02KT CAVOK 05/04 Q1015

Decode

TAF

TAF LIPE 131100Z 1312/1412 VRB05KT 7000 FEW050 BECMG 1316/1318 3000 BR TEMPO 1322/1405 0500 FG BECMG 1408/1410 5000

Decode

Departure Runways

ID Width Length Bearing (true) Bearing (mag) Surface Threshold Offset Overrun Length
12 148 ft / 45 m 9,185 ft / 2,800 m 116.78° 113.86° Asphalt 1,007 ft / 307 m 0 ft / 0 m
30 148 ft / 45 m 9,185 ft / 2,800 m 296.81° 293.89° Asphalt 1,188 ft / 362 m 200 ft / 61 m

LIBC

Details ICAO LIBC (CRV)
Name CROTONE
Region Italy
Timezone Europe/Rome (UTC+1.0)
Stats Elevation 521 ft / 159 m (AMSL)
Location 38.997223° 17.080170°
Runways 1
Magnetic Variation 3.628° E

METAR

LIBC 131650Z 24014KT 9999 SCT025 16/07 Q1018

Decode

TAF

TAF LIBC 131100Z 1312/1412 26015KT 9999 SCT030= TAF LICJ 131100Z 1312/1412 27016KT 8000 SCT030

Decode

Destination Runways

ID Width Length Bearing (true) Bearing (mag) Surface Threshold Offset Overrun Length
17 148 ft / 45 m 6,572 ft / 2,003 m 168.92° 165.29° Asphalt 525 ft / 160 m 0 ft / 0 m
35 148 ft / 45 m 6,572 ft / 2,003 m 348.92° 345.29° Asphalt 0 ft / 0 m 0 ft / 0 m

Popular Alternatives